Guatay (79, 629) Station Data

Red Flag Warning: Yes
Fire Weather Zone: 258
SDGE Region: Mountain Empire
Lat/Lon: 32.855/-116.574

Observations

Time Wind Speed/Gust Temp(F) RH Fuel Moist Fuel Temp(F) Dewpt(F) Tmax(F) Tmin(F) Accum Precip 10-min Precip SL Press(mb)
6/27 4:50pm 268 13 G 20 83° 11% - - 24° 86.5° 65.6° - - -
6/27 4:40pm 268 12 G 20 84° 12% - - 26° 86.5° 65.6° - - -
6/27 4:30pm 275 13 G 23 84° 12% - - 26° 86.5° 65.6° - - -
6/27 4:20pm 280 12 G 21 84° 11% - - 24° 86.5° 65.6° - - -
6/27 4:10pm 286 15 G 24 84° 11% - - 23° 86.5° 65.6° - - -
6/27 4:00pm 271 14 G 20 84° 13% - - 27° 86.5° 65.6° - - -
6/27 3:50pm 268 14 G 24 84° 12% - - 26° 86.5° 65.6° - - -
6/27 3:40pm 266 15 G 23 84° 12% - - 26° 86.5° 65.6° - - -
6/27 3:30pm 272 14 G 22 84° 12% - - 25° 86.5° 65.6° - - -
6/27 3:20pm 267 14 G 24 84° 12% - - 25° 86.5° 65.6° - - -
6/27 3:10pm 270 15 G 22 84° 12% - - 27° 86.5° 65.6° - - -
6/27 3:00pm 271 14 G 23 85° 13% - - 28° 86.5° 65.6° - - -
6/27 2:50pm 259 15 G 24 84° 14% - - 29° 86.5° 65.6° - - -
6/27 2:40pm 259 15 G 23 84° 13% - - 28° 86.5° 65.6° - - -
6/27 2:30pm 262 14 G 24 85° 13% - - 29° 86.5° 65.6° - - -
6/27 2:20pm 272 16 G 23 85° 14% - - 30° 86.5° 65.6° - - -
6/27 2:10pm 268 13 G 24 85° 13% - - 29° 86.5° 65.6° - - -
6/27 2:00pm 264 15 G 26 86° 12% - - 27° 86.5° 65.6° - - -
6/27 1:50pm 275 14 G 25 85° 11% - - 26° 86.5° 65.6° - - -
6/27 1:40pm 275 16 G 24 86° 11% - - 25° 86.5° 65.6° - - -
6/27 1:30pm 264 14 G 20 85° 11% - - 24° 86.5° 65.6° - - -
6/27 1:20pm 259 16 G 23 86° 10% - - 24° 86.5° 65.6° - - -
6/27 1:10pm 265 14 G 22 85° 11% - - 24° 86.5° 65.6° - - -
6/27 1:00pm 264 14 G 20 85° 10% - - 23° 85.4° 65.6° - - -
6/27 12:50pm 282 16 G 25 85° 10% - - 22° 85° 65.6° - - -
6/27 12:40pm 280 17 G 26 84° 10% - - 21° 84.7° 65.6° - - -
6/27 12:30pm 283 18 G 26 84° 9% - - 20° 84.5° 65.6° - - -
6/27 12:20pm 285 19 G 27 84° 10% - - 20° 84.5° 65.6° - - -
6/27 12:10pm 278 17 G 26 84° 9% - - 20° 84.5° 65.6° - - -
6/27 3:50am 81 4 G 6 69° 14% - - 19° 74.4° 68.2° - - -
6/27 3:40am 83 4 G 5 69° 14% - - 19° 74.4° 68.2° - - -
6/27 3:30am 82 3 G 4 70° 14% - - 18° 74.4° 68.2° - - -
6/27 3:20am 78 3 G 5 70° 14% - - 18° 74.4° 68.2° - - -
6/27 3:10am 75 3 G 4 70° 14% - - 18° 74.4° 68.2° - - -
6/27 3:00am 77 3 G 5 69° 14% - - 18° 74.4° 68.2° - - -
6/27 2:50am 80 5 G 6 69° 14% - - 18° 74.4° 68.2° - - -
6/27 2:40am 90 5 G 6 69° 13% - - 17° 74.4° 68.2° - - -
6/27 2:30am 101 3 G 4 70° 13% - - 16° 74.4° 68.2° - - -
6/27 2:20am 310 1 G 3 71° 12% - - 16° 74.4° 68.2° - - -
6/27 2:10am 268 1 G 5 70° 12% - - 16° 74.4° 68.2° - - -
6/27 2:00am 339 2 G 4 71° 12% - - 15° 74.4° 68.2° - - -
6/27 1:50am 72 3 G 5 70° 12% - - 15° 74.4° 68.2° - - -
6/27 1:40am 84 4 G 5 70° 12% - - 15° 74.4° 68.2° - - -
6/27 1:30am 322 3 G 6 72° 11% - - 15° 74.4° 70.1° - - -
6/27 1:20am 262 3 G 5 72° 11% - - 15° 74.4° 70.1° - - -
6/27 1:10am 226 1 G 4 71° 11% - - 14° 74.4° 70.1° - - -
6/27 1:00am 99 1 G 4 72° 11% - - 14° 74.4° 70.1° - - -
6/27 12:50am 324 2 G 6 73° 10% - - 14° 74.4° 70.4° - - -
6/27 12:40am 301 2 G 7 73° 10% - - 14° 74° 70.4° - - -
6/27 12:30am 252 1 G 5 73° 11% - - 15° 73° 70.4° - - -
6/27 12:20am 91 2 G 4 72° 12% - - 15° 72.4° 70.4° - - -
6/27 12:10am 87 3 G 5 71° 12% - - 16° 72.4° 70.4° - - -
6/27 12:00am 86 5 G 7 70° 13% - - 17° 91.8° 67.6° - - -
6/26 11:50pm 80 4 G 7 71° 12% - - 17° 91.8° 67.6° - - -
6/26 11:40pm 60 3 G 5 72° 12% - - 17° 91.8° 67.6° - - -
6/26 11:30pm 273 5 G 10 73° 12% - - 17° 91.8° 67.6° - - -
6/26 11:20pm 274 10 G 15 72° 12% - - 17° 91.8° 67.6° - - -
6/26 11:10pm 278 13 G 18 72° 13% - - 18° 91.8° 67.6° - - -
6/26 11:00pm 279 14 G 18 69° 15% - - 20° 91.8° 67.6° - - -
6/26 10:50pm 286 15 G 19 68° 18% - - 23° 91.8° 67.6° - - -
6/26 10:40pm 283 15 G 19 69° 17% - - 23° 91.8° 67.6° - - -
6/26 10:30pm 287 14 G 19 68° 19% - - 24° 91.8° 67.6° - - -
6/26 10:20pm 285 13 G 16 70° 16% - - 21° 91.8° 69° - - -
6/26 10:10pm 285 11 G 14 73° 14% - - 20° 91.8° 71.3° - - -
6/26 10:00pm 281 8 G 10 74° 13% - - 20° 91.8° 71.3° - - -
6/26 9:50pm 269 3 G 7 74° 13% - - 20° 91.8° 71.3° - - -
6/26 9:40pm 76 1 G 2 73° 14% - - 21° 91.8° 71.3° - - -
6/26 9:30pm 79 2 G 3 72° 14% - - 21° 91.8° 71.3° - - -
6/26 9:20pm 74 3 G 4 72° 14% - - 21° 91.8° 71.4° - - -
6/26 9:10pm 84 4 G 5 72° 15% - - 21° 91.8° 71.4° - - -
6/26 9:00pm 83 4 G 5 73° 15% - - 22° 91.8° 72.4° - - -
6/26 8:50pm 83 3 G 5 74° 15% - - 23° 91.8° 73.2° - - -
6/26 8:40pm 101 1 G 3 75° 14% - - 23° 91.8° 73.9° - - -
6/26 8:30pm 279 1 G 3 76° 13% - - 22° 91.8° 73.9° - - -
6/26 8:20pm 273 3 G 10 77° 13% - - 23° 91.8° 73.9° - - -
6/26 8:10pm 294 7 G 10 79° 13% - - 23° 91.8° 73.9° - - -
6/26 8:00pm 297 9 G 13 79° 13% - - 25° 91.8° 73.9° - - -
6/26 7:50pm 296 9 G 13 80° 14% - - 27° 91.8° 73.9° - - -
6/26 7:40pm 282 11 G 17 82° 13% - - 27° 91.8° 73.9° - - -
6/26 7:30pm 285 14 G 21 82° 12% - - 26° 91.8° 73.9° - - -
6/26 7:20pm 284 13 G 21 83° 12% - - 25° 91.8° 73.9° - - -
6/26 7:10pm 278 12 G 17 84° 11% - - 24° 91.8° 73.9° - - -
6/26 7:00pm 277 12 G 17 85° 11% - - 24° 91.8° 73.9° - - -
6/26 6:50pm 278 13 G 20 85° 10% - - 23° 91.8° 73.9° - - -
6/26 6:40pm 278 13 G 20 86° 10% - - 22° 91.8° 73.9° - - -
6/26 6:30pm 288 17 G 25 86° 9% - - 22° 91.8° 73.9° - - -
6/26 6:20pm 277 15 G 27 87° 9% - - 22° 91.8° 73.9° - - -
6/26 6:10pm 285 17 G 27 87° 9% - - 21° 91.8° 73.9° - - -
6/26 6:00pm 285 19 G 28 87° 9% - - 21° 91.8° 73.9° - - -
6/26 5:50pm 278 14 G 21 88° 9% - - 22° 91.8° 73.9° - - -
6/26 5:40pm 285 14 G 26 88° 9% - - 22° 91.8° 73.9° - - -
6/26 5:30pm 286 17 G 26 88° 9% - - 22° 91.8° 73.9° - - -
6/26 5:20pm 292 18 G 30 88° 9% - - 23° 91.8° 73.9° - - -
6/26 5:10pm 286 19 G 31 88° 9% - - 22° 91.8° 73.9° - - -
6/26 5:00pm 288 21 G 29 88° 9% - - 22° 91.8° 73.9° - - -
6/26 4:50pm 285 17 G 28 89° 9% - - 22° 91.8° 73.9° - - -
6/26 4:40pm 282 19 G 30 89° 9% - - 22° 91.8° 73.9° - - -
6/26 4:30pm 283 17 G 27 89° 9% - - 22° 91.8° 73.9° - - -
6/26 4:20pm 286 20 G 29 89° 9% - - 22° 91.8° 73.9° - - -
6/26 4:10pm 281 17 G 29 89° 9% - - 22° 91.8° 73.9° - - -
6/26 4:00pm 290 16 G 26 90° 9% - - 22° 91.8° 73.9° - - -
6/26 3:50pm 284 15 G 27 90° 9% - - 23° 91.8° 73.9° - - -
6/26 3:40pm 284 16 G 25 90° 9% - - 23° 91.8° 73.9° - - -
6/26 3:30pm 294 16 G 30 90° 9% - - 23° 91.8° 73.9° - - -
6/26 3:20pm 285 17 G 28 90° 9% - - 23° 91.8° 73.9° - - -
6/26 3:10pm 284 18 G 27 90° 9% - - 24° 91.8° 73.9° - - -
6/26 3:00pm 277 15 G 26 90° 10% - - 25° 91.8° 73.9° - - -
6/26 2:50pm 293 16 G 26 90° 10% - - 27° 91.8° 73.9° - - -
6/26 2:40pm 291 15 G 23 91° 10% - - 26° 91.8° 73.9° - - -
6/26 2:30pm 297 16 G 25 91° 11% - - 28° 91.8° 73.9° - - -
6/26 2:20pm 278 15 G 25 91° 9% - - 25° 91.8° 73.9° - - -
6/26 2:10pm 290 14 G 27 91° 10% - - 28° 91.8° 73.9° - - -
6/26 2:00pm 286 15 G 23 91° 10% - - 27° 91.6° 73.9° - - -
6/26 1:50pm 284 16 G 25 90° 10% - - 25° 91.6° 73.9° - - -
6/26 1:40pm 284 16 G 26 91° 10% - - 27° 91.6° 73.9° - - -
6/26 1:30pm 286 15 G 24 90° 10% - - 26° 91.6° 73.9° - - -
6/26 1:20pm 275 15 G 24 91° 9% - - 25° 91.6° 73.9° - - -
6/26 1:10pm 288 14 G 24 91° 9% - - 25° 91.6° 73.9° - - -
6/26 1:00pm 297 13 G 21 90° 9% - - 25° 91.2° 73.9° - - -
6/26 12:50pm 287 16 G 26 90° 9% - - 24° 91.2° 73.9° - - -
6/26 12:40pm 280 16 G 26 90° 9% - - 24° 91.2° 73.9° - - -
6/26 12:30pm 283 17 G 26 90° 9% - - 24° 91.2° 73.9° - - -
6/26 12:20pm 283 14 G 22 90° 9% - - 25° 91.2° 73.9° - - -
6/26 12:10pm 284 16 G 22 90° 9% - - 24° 90.4° 73.9° - - -
6/26 12:00pm 275 14 G 21 89° 10% - - 25° 90.2° 73.9° - - -
6/26 11:50am 283 13 G 22 89° 10% - - 26° 89.8° 73.9° - - -
6/26 11:40am 298 14 G 21 89° 11% - - 27° 89.8° 73.9° - - -
6/26 11:30am 276 13 G 22 89° 11% - - 28° 89.8° 73.9° - - -
6/26 11:20am 286 12 G 19 89° 11% - - 28° 89.6° 73.9° - - -
6/26 11:10am 283 15 G 26 89° 10% - - 26° 89.6° 73.9° - - -
6/26 11:00am 283 13 G 22 89° 10% - - 27° 89.6° 73.9° - - -
6/26 10:50am 280 12 G 20 89° 11% - - 27° 89.2° 73.9° - - -
6/26 10:40am 298 17 G 27 88° 10% - - 26° 88.9° 73.9° - - -
6/26 10:30am 284 11 G 19 88° 11% - - 27° 88.9° 73.9° - - -
6/26 10:20am 286 12 G 18 88° 11% - - 27° 88.9° 73.9° - - -
6/26 10:10am 292 13 G 21 88° 11% - - 27° 88.5° 73.9° - - -
6/26 10:00am 292 11 G 18 88° 11% - - 28° 88.5° 73.9° - - -
6/26 9:50am 277 8 G 13 88° 12% - - 30° 88.5° 73.9° - - -
6/26 9:40am 277 7 G 13 88° 12% - - 29° 88.2° 73.9° - - -
6/26 9:30am 287 8 G 13 87° 12% - - 29° 87.9° 73.9° - - -
6/26 9:20am 262 7 G 11 87° 13% - - 29° 87.9° 73.9° - - -
6/26 9:10am 260 6 G 9 87° 13% - - 29° 87.9° 73.9° - - -
6/26 9:00am 276 4 G 6 87° 12% - - 29° 87.9° 73.9° - - -
6/26 8:50am 274 2 G 5 87° 12% - - 29° 87.9° 73.9° - - -
6/26 8:40am 235 1 G 3 87° 13% - - 29° 87.4° 73.9° - - -
6/26 8:30am 114 1 G 3 85° 17% - - 35° 87° 73.9° - - -
6/26 8:20am 90 3 G 4 83° 17% - - 34° 84.8° 73.9° - - -
6/26 8:10am 84 3 G 4 81° 18% - - 33° 83.1° 73.9° - - -
6/26 8:00am 81 3 G 4 80° 17% - - 31° 83.1° 73.9° - - -
6/26 7:50am 85 3 G 4 80° 17% - - 30° 83.1° 73.9° - - -
6/26 7:40am 91 3 G 5 80° 15% - - 29° 83.1° 73.9° - - -
6/26 7:30am 75 2 G 4 80° 15% - - 28° 83.1° 73.9° - - -
6/26 7:20am 83 4 G 6 79° 15% - - 28° 83.1° 73.9° - - -
6/26 7:10am 83 4 G 6 79° 15% - - 27° 83.1° 73.9° - - -
6/26 7:00am 90 5 G 6 80° 14% - - 27° 83.1° 73.9° - - -
6/26 6:50am 88 4 G 6 80° 13% - - 26° 83.1° 73.9° - - -
6/26 6:40am 54 2 G 4 81° 12% - - 24° 83.1° 73.9° - - -
6/26 6:30am 87 3 G 4 77° 14% - - 25° 83.1° 73.9° - - -
6/26 6:20am 75 2 G 4 79° 13% - - 25° 83.1° 73.9° - - -
6/26 6:10am 75 4 G 5 78° 14% - - 25° 83.1° 73.9° - - -
6/26 6:00am 90 4 G 6 77° 14% - - 25° 83.1° 73.9° - - -
6/26 5:50am 85 3 G 4 78° 14% - - 25° 83.1° 73.9° - - -
6/26 5:40am 81 4 G 5 78° 14% - - 25° 83.1° 73.9° - - -
6/26 5:30am 86 6 G 8 77° 15% - - 25° 83.1° 73.9° - - -
6/26 5:20am 88 5 G 6 77° 15% - - 25° 83.1° 73.9° - - -
6/26 5:10am 53 3 G 5 80° 13% - - 25° 83.1° 73.9° - - -
6/26 5:00am 80 5 G 7 78° 14% - - 25° 83.1° 73.9° - - -
6/26 4:50am 87 5 G 7 78° 14% - - 25° 83.1° 73.9° - - -
6/26 4:40am 82 4 G 7 78° 14% - - 25° 83.1° 73.9° - - -
6/26 4:30am 83 5 G 6 78° 14% - - 25° 83.1° 73.9° - - -
6/26 4:20am 84 4 G 6 78° 14% - - 25° 83.1° 73.9° - - -
6/26 4:10am 83 4 G 6 79° 14% - - 25° 83.1° 73.9° - - -
6/26 4:00am 82 5 G 8 78° 14% - - 25° 83.1° 73.9° - - -
6/26 3:50am 93 5 G 7 79° 13% - - 25° 83.1° 73.9° - - -